sensor_id;sensor_type;location;lat;lon;timestamp;P1;durP1;ratioP1;P2;durP2;ratioP2
3573;SDS011;1801;51.050;6.246;2023-05-10T00:00:42;52.87;;;18.97;;
3573;SDS011;1801;51.050;6.246;2023-05-10T00:03:08;55.33;;;19.23;;
3573;SDS011;1801;51.050;6.246;2023-05-10T00:05:33;56.03;;;18.00;;
3573;SDS011;1801;51.050;6.246;2023-05-10T00:07:58;75.80;;;19.43;;
3573;SDS011;1801;51.050;6.246;2023-05-10T00:10:24;68.50;;;20.40;;
3573;SDS011;1801;51.050;6.246;2023-05-10T00:12:49;69.23;;;20.30;;
3573;SDS011;1801;51.050;6.246;2023-05-10T00:15:14;71.20;;;19.60;;
3573;SDS011;1801;51.050;6.246;2023-05-10T00:17:39;71.90;;;21.20;;
3573;SDS011;1801;51.050;6.246;2023-05-10T00:20:05;67.23;;;20.60;;
3573;SDS011;1801;51.050;6.246;2023-05-10T00:22:31;82.77;;;22.87;;
3573;SDS011;1801;51.050;6.246;2023-05-10T00:24:56;78.90;;;22.10;;
3573;SDS011;1801;51.050;6.246;2023-05-10T00:27:22;91.80;;;22.80;;
3573;SDS011;1801;51.050;6.246;2023-05-10T00:29:47;85.27;;;24.33;;
3573;SDS011;1801;51.050;6.246;2023-05-10T00:32:12;84.00;;;23.93;;
3573;SDS011;1801;51.050;6.246;2023-05-10T00:34:38;88.87;;;22.40;;
3573;SDS011;1801;51.050;6.246;2023-05-10T00:37:04;91.33;;;22.87;;
3573;SDS011;1801;51.050;6.246;2023-05-10T00:39:29;76.33;;;19.97;;
3573;SDS011;1801;51.050;6.246;2023-05-10T00:41:54;74.10;;;21.53;;
3573;SDS011;1801;51.050;6.246;2023-05-10T00:44:20;81.63;;;21.00;;
3573;SDS011;1801;51.050;6.246;2023-05-10T00:46:45;76.00;;;22.13;;
3573;SDS011;1801;51.050;6.246;2023-05-10T00:49:11;74.37;;;21.17;;
3573;SDS011;1801;51.050;6.246;2023-05-10T00:51:36;77.67;;;21.50;;
3573;SDS011;1801;51.050;6.246;2023-05-10T00:54:02;83.83;;;20.67;;
3573;SDS011;1801;51.050;6.246;2023-05-10T00:56:27;73.70;;;19.10;;
3573;SDS011;1801;51.050;6.246;2023-05-10T00:58:54;72.80;;;21.23;;
3573;SDS011;1801;51.050;6.246;2023-05-10T01:01:19;79.83;;;20.70;;
3573;SDS011;1801;51.050;6.246;2023-05-10T01:03:45;79.97;;;19.90;;
3573;SDS011;1801;51.050;6.246;2023-05-10T01:06:10;70.17;;;20.97;;
3573;SDS011;1801;51.050;6.246;2023-05-10T01:08:36;66.10;;;19.70;;
3573;SDS011;1801;51.050;6.246;2023-05-10T01:11:01;78.77;;;20.37;;
3573;SDS011;1801;51.050;6.246;2023-05-10T01:15:52;47.00;;;16.03;;
3573;SDS011;1801;51.050;6.246;2023-05-10T01:18:17;57.60;;;17.83;;
3573;SDS011;1801;51.050;6.246;2023-05-10T01:20:44;48.90;;;17.47;;
3573;SDS011;1801;51.050;6.246;2023-05-10T01:23:30;49.23;;;16.97;;
3573;SDS011;1801;51.050;6.246;2023-05-10T01:26:04;62.87;;;16.23;;
3573;SDS011;1801;51.050;6.246;2023-05-10T01:31:04;45.03;;;14.33;;
3573;SDS011;1801;51.050;6.246;2023-05-10T01:41:28;47.13;;;15.60;;
3573;SDS011;1801;51.050;6.246;2023-05-10T01:44:10;49.90;;;14.10;;
3573;SDS011;1801;51.050;6.246;2023-05-10T01:46:37;41.40;;;15.53;;
3573;SDS011;1801;51.050;6.246;2023-05-10T01:49:03;38.40;;;13.63;;
3573;SDS011;1801;51.050;6.246;2023-05-10T01:51:36;56.40;;;13.63;;
3573;SDS011;1801;51.050;6.246;2023-05-10T01:54:03;45.47;;;14.33;;
3573;SDS011;1801;51.050;6.246;2023-05-10T01:56:30;49.13;;;13.37;;
3573;SDS011;1801;51.050;6.246;2023-05-10T01:58:56;59.20;;;16.07;;
3573;SDS011;1801;51.050;6.246;2023-05-10T02:01:23;53.43;;;15.57;;
3573;SDS011;1801;51.050;6.246;2023-05-10T02:03:51;51.57;;;15.50;;
3573;SDS011;1801;51.050;6.246;2023-05-10T02:06:16;49.87;;;16.77;;
3573;SDS011;1801;51.050;6.246;2023-05-10T02:08:43;51.37;;;16.13;;
3573;SDS011;1801;51.050;6.246;2023-05-10T02:11:10;58.73;;;16.70;;
3573;SDS011;1801;51.050;6.246;2023-05-10T02:13:37;46.67;;;15.27;;
3573;SDS011;1801;51.050;6.246;2023-05-10T02:16:04;51.93;;;15.17;;
3573;SDS011;1801;51.050;6.246;2023-05-10T02:18:30;87.43;;;18.20;;
3573;SDS011;1801;51.050;6.246;2023-05-10T02:20:56;65.87;;;16.60;;
3573;SDS011;1801;51.050;6.246;2023-05-10T02:23:22;57.70;;;17.97;;
3573;SDS011;1801;51.050;6.246;2023-05-10T02:25:48;76.20;;;18.80;;
3573;SDS011;1801;51.050;6.246;2023-05-10T02:28:15;58.10;;;18.70;;
3573;SDS011;1801;51.050;6.246;2023-05-10T02:30:40;90.80;;;21.87;;
3573;SDS011;1801;51.050;6.246;2023-05-10T02:33:06;92.07;;;21.87;;
3573;SDS011;1801;51.050;6.246;2023-05-10T02:35:32;79.67;;;22.50;;
3573;SDS011;1801;51.050;6.246;2023-05-10T02:37:58;89.97;;;23.33;;
3573;SDS011;1801;51.050;6.246;2023-05-10T02:40:24;105.37;;;24.87;;
3573;SDS011;1801;51.050;6.246;2023-05-10T02:42:50;110.53;;;24.50;;
3573;SDS011;1801;51.050;6.246;2023-05-10T02:45:18;100.17;;;25.97;;
3573;SDS011;1801;51.050;6.246;2023-05-10T02:47:44;117.30;;;25.30;;
3573;SDS011;1801;51.050;6.246;2023-05-10T02:50:09;108.37;;;24.27;;
3573;SDS011;1801;51.050;6.246;2023-05-10T02:52:45;87.90;;;24.10;;
3573;SDS011;1801;51.050;6.246;2023-05-10T02:55:12;75.27;;;21.97;;
3573;SDS011;1801;51.050;6.246;2023-05-10T02:57:40;69.13;;;23.07;;
3573;SDS011;1801;51.050;6.246;2023-05-10T03:00:06;66.33;;;21.73;;
3573;SDS011;1801;51.050;6.246;2023-05-10T03:02:31;62.50;;;22.47;;
3573;SDS011;1801;51.050;6.246;2023-05-10T03:04:57;62.37;;;20.00;;
3573;SDS011;1801;51.050;6.246;2023-05-10T03:07:22;54.13;;;19.80;;
3573;SDS011;1801;51.050;6.246;2023-05-10T03:09:48;58.90;;;20.67;;
3573;SDS011;1801;51.050;6.246;2023-05-10T03:12:15;53.57;;;19.20;;
3573;SDS011;1801;51.050;6.246;2023-05-10T03:17:15;46.73;;;18.30;;
3573;SDS011;1801;51.050;6.246;2023-05-10T03:19:47;37.73;;;16.40;;
3573;SDS011;1801;51.050;6.246;2023-05-10T03:22:17;45.63;;;16.60;;
3573;SDS011;1801;51.050;6.246;2023-05-10T03:24:46;36.07;;;16.17;;
3573;SDS011;1801;51.050;6.246;2023-05-10T03:27:12;44.87;;;16.20;;
3573;SDS011;1801;51.050;6.246;2023-05-10T03:29:38;32.13;;;15.23;;
3573;SDS011;1801;51.050;6.246;2023-05-10T03:32:04;41.43;;;15.70;;
3573;SDS011;1801;51.050;6.246;2023-05-10T03:34:30;36.97;;;15.53;;
3573;SDS011;1801;51.050;6.246;2023-05-10T03:36:56;36.30;;;14.70;;
3573;SDS011;1801;51.050;6.246;2023-05-10T03:39:21;39.17;;;16.07;;
3573;SDS011;1801;51.050;6.246;2023-05-10T03:41:46;41.90;;;14.53;;
3573;SDS011;1801;51.050;6.246;2023-05-10T03:44:11;36.97;;;14.77;;
3573;SDS011;1801;51.050;6.246;2023-05-10T03:46:37;38.00;;;14.70;;
3573;SDS011;1801;51.050;6.246;2023-05-10T03:49:02;31.93;;;12.50;;
3573;SDS011;1801;51.050;6.246;2023-05-10T03:51:27;30.43;;;13.77;;
3573;SDS011;1801;51.050;6.246;2023-05-10T03:53:53;42.10;;;14.70;;
3573;SDS011;1801;51.050;6.246;2023-05-10T03:56:18;50.17;;;16.00;;
3573;SDS011;1801;51.050;6.246;2023-05-10T03:58:47;33.80;;;14.00;;
3573;SDS011;1801;51.050;6.246;2023-05-10T04:01:12;34.13;;;13.77;;
3573;SDS011;1801;51.050;6.246;2023-05-10T04:03:37;40.23;;;16.37;;
3573;SDS011;1801;51.050;6.246;2023-05-10T04:06:03;49.47;;;15.20;;
3573;SDS011;1801;51.050;6.246;2023-05-10T04:08:28;37.63;;;15.33;;
3573;SDS011;1801;51.050;6.246;2023-05-10T04:10:54;37.17;;;15.77;;
3573;SDS011;1801;51.050;6.246;2023-05-10T04:13:19;33.93;;;16.53;;
3573;SDS011;1801;51.050;6.246;2023-05-10T04:15:44;34.57;;;14.80;;
3573;SDS011;1801;51.050;6.246;2023-05-10T04:18:10;35.00;;;16.20;;
3573;SDS011;1801;51.050;6.246;2023-05-10T04:20:35;35.17;;;14.27;;
3573;SDS011;1801;51.050;6.246;2023-05-10T04:23:00;34.93;;;13.73;;
3573;SDS011;1801;51.050;6.246;2023-05-10T04:25:26;42.67;;;15.83;;
3573;SDS011;1801;51.050;6.246;2023-05-10T04:27:51;42.33;;;16.17;;
3573;SDS011;1801;51.050;6.246;2023-05-10T04:30:16;48.70;;;15.30;;
3573;SDS011;1801;51.050;6.246;2023-05-10T04:32:41;41.17;;;15.67;;
3573;SDS011;1801;51.050;6.246;2023-05-10T04:35:07;47.20;;;16.90;;
3573;SDS011;1801;51.050;6.246;2023-05-10T04:37:32;39.87;;;14.70;;
3573;SDS011;1801;51.050;6.246;2023-05-10T04:39:57;38.07;;;13.97;;
3573;SDS011;1801;51.050;6.246;2023-05-10T04:42:24;34.37;;;14.70;;
3573;SDS011;1801;51.050;6.246;2023-05-10T04:44:50;41.30;;;16.27;;
3573;SDS011;1801;51.050;6.246;2023-05-10T04:47:16;42.97;;;14.77;;
3573;SDS011;1801;51.050;6.246;2023-05-10T04:49:42;39.70;;;13.97;;
3573;SDS011;1801;51.050;6.246;2023-05-10T04:52:07;40.87;;;14.90;;
3573;SDS011;1801;51.050;6.246;2023-05-10T04:54:32;38.37;;;14.80;;
3573;SDS011;1801;51.050;6.246;2023-05-10T04:56:57;36.60;;;15.13;;
3573;SDS011;1801;51.050;6.246;2023-05-10T04:59:22;42.93;;;14.77;;
3573;SDS011;1801;51.050;6.246;2023-05-10T05:01:48;44.80;;;17.27;;
3573;SDS011;1801;51.050;6.246;2023-05-10T05:04:13;44.17;;;16.27;;
3573;SDS011;1801;51.050;6.246;2023-05-10T05:06:39;44.50;;;15.90;;
3573;SDS011;1801;51.050;6.246;2023-05-10T05:09:04;47.00;;;16.70;;
3573;SDS011;1801;51.050;6.246;2023-05-10T05:11:29;39.53;;;15.43;;
3573;SDS011;1801;51.050;6.246;2023-05-10T05:13:55;40.97;;;15.50;;
3573;SDS011;1801;51.050;6.246;2023-05-10T05:16:20;74.87;;;17.93;;
3573;SDS011;1801;51.050;6.246;2023-05-10T05:18:45;56.93;;;16.47;;
3573;SDS011;1801;51.050;6.246;2023-05-10T05:21:16;63.73;;;18.50;;
3573;SDS011;1801;51.050;6.246;2023-05-10T05:23:42;42.70;;;17.60;;
3573;SDS011;1801;51.050;6.246;2023-05-10T05:26:07;41.77;;;18.20;;
3573;SDS011;1801;51.050;6.246;2023-05-10T05:28:32;46.77;;;17.63;;
3573;SDS011;1801;51.050;6.246;2023-05-10T05:31:01;44.13;;;17.60;;
3573;SDS011;1801;51.050;6.246;2023-05-10T05:33:27;58.60;;;17.80;;
3573;SDS011;1801;51.050;6.246;2023-05-10T05:35:52;48.07;;;16.70;;
3573;SDS011;1801;51.050;6.246;2023-05-10T05:38:17;62.47;;;19.13;;
3573;SDS011;1801;51.050;6.246;2023-05-10T05:40:42;51.30;;;19.67;;
3573;SDS011;1801;51.050;6.246;2023-05-10T05:43:08;59.60;;;18.07;;
3573;SDS011;1801;51.050;6.246;2023-05-10T05:45:33;61.03;;;20.07;;
3573;SDS011;1801;51.050;6.246;2023-05-10T05:47:58;59.37;;;20.10;;
3573;SDS011;1801;51.050;6.246;2023-05-10T05:50:23;73.53;;;20.97;;
3573;SDS011;1801;51.050;6.246;2023-05-10T05:52:48;64.57;;;21.60;;
3573;SDS011;1801;51.050;6.246;2023-05-10T05:55:14;69.77;;;21.43;;
3573;SDS011;1801;51.050;6.246;2023-05-10T05:57:39;76.60;;;23.10;;
3573;SDS011;1801;51.050;6.246;2023-05-10T06:00:04;74.40;;;21.47;;
3573;SDS011;1801;51.050;6.246;2023-05-10T06:02:30;62.63;;;20.80;;
3573;SDS011;1801;51.050;6.246;2023-05-10T06:04:55;76.93;;;21.50;;
3573;SDS011;1801;51.050;6.246;2023-05-10T06:07:20;67.37;;;21.93;;
3573;SDS011;1801;51.050;6.246;2023-05-10T06:09:46;72.93;;;25.00;;
3573;SDS011;1801;51.050;6.246;2023-05-10T06:12:11;84.13;;;20.30;;
3573;SDS011;1801;51.050;6.246;2023-05-10T06:14:36;68.70;;;19.70;;
3573;SDS011;1801;51.050;6.246;2023-05-10T06:17:02;81.67;;;22.20;;
3573;SDS011;1801;51.050;6.246;2023-05-10T06:19:28;53.57;;;19.23;;
3573;SDS011;1801;51.050;6.246;2023-05-10T06:21:54;65.97;;;18.27;;
3573;SDS011;1801;51.050;6.246;2023-05-10T06:24:19;56.37;;;18.90;;
3573;SDS011;1801;51.050;6.246;2023-05-10T06:26:44;69.00;;;18.87;;
3573;SDS011;1801;51.050;6.246;2023-05-10T06:29:10;57.90;;;20.67;;
3573;SDS011;1801;51.050;6.246;2023-05-10T06:31:35;56.77;;;19.70;;
3573;SDS011;1801;51.050;6.246;2023-05-10T06:34:00;66.00;;;20.90;;
3573;SDS011;1801;51.050;6.246;2023-05-10T06:36:25;67.90;;;21.50;;
3573;SDS011;1801;51.050;6.246;2023-05-10T06:38:52;59.70;;;19.53;;
3573;SDS011;1801;51.050;6.246;2023-05-10T06:41:17;75.23;;;21.30;;
3573;SDS011;1801;51.050;6.246;2023-05-10T06:43:42;59.43;;;19.80;;
3573;SDS011;1801;51.050;6.246;2023-05-10T06:46:08;61.07;;;19.03;;
3573;SDS011;1801;51.050;6.246;2023-05-10T06:48:33;68.10;;;20.60;;
3573;SDS011;1801;51.050;6.246;2023-05-10T06:50:59;67.60;;;20.67;;
3573;SDS011;1801;51.050;6.246;2023-05-10T06:53:24;61.90;;;20.37;;
3573;SDS011;1801;51.050;6.246;2023-05-10T06:55:49;67.93;;;22.63;;
3573;SDS011;1801;51.050;6.246;2023-05-10T06:58:14;62.97;;;22.17;;
3573;SDS011;1801;51.050;6.246;2023-05-10T07:00:40;59.47;;;20.77;;
3573;SDS011;1801;51.050;6.246;2023-05-10T07:03:07;90.67;;;22.77;;
3573;SDS011;1801;51.050;6.246;2023-05-10T07:05:32;72.10;;;23.47;;
3573;SDS011;1801;51.050;6.246;2023-05-10T07:07:58;71.73;;;24.70;;
3573;SDS011;1801;51.050;6.246;2023-05-10T07:10:23;64.53;;;21.47;;
3573;SDS011;1801;51.050;6.246;2023-05-10T07:12:48;90.97;;;26.23;;
3573;SDS011;1801;51.050;6.246;2023-05-10T07:15:13;80.50;;;24.03;;
3573;SDS011;1801;51.050;6.246;2023-05-10T07:17:40;67.83;;;20.93;;
3573;SDS011;1801;51.050;6.246;2023-05-10T07:20:06;69.00;;;22.33;;
3573;SDS011;1801;51.050;6.246;2023-05-10T07:22:31;69.20;;;21.63;;
3573;SDS011;1801;51.050;6.246;2023-05-10T07:24:56;67.43;;;21.47;;
3573;SDS011;1801;51.050;6.246;2023-05-10T07:27:22;55.70;;;20.80;;
3573;SDS011;1801;51.050;6.246;2023-05-10T07:29:47;67.77;;;23.60;;
3573;SDS011;1801;51.050;6.246;2023-05-10T07:32:12;70.53;;;22.80;;
3573;SDS011;1801;51.050;6.246;2023-05-10T07:34:37;65.03;;;22.60;;
3573;SDS011;1801;51.050;6.246;2023-05-10T07:37:02;76.23;;;22.40;;
3573;SDS011;1801;51.050;6.246;2023-05-10T07:39:28;71.70;;;23.43;;
3573;SDS011;1801;51.050;6.246;2023-05-10T07:41:53;74.83;;;23.30;;
3573;SDS011;1801;51.050;6.246;2023-05-10T07:44:18;63.90;;;23.17;;
3573;SDS011;1801;51.050;6.246;2023-05-10T07:46:45;77.43;;;24.87;;
3573;SDS011;1801;51.050;6.246;2023-05-10T07:49:10;74.87;;;24.47;;
3573;SDS011;1801;51.050;6.246;2023-05-10T07:51:35;72.80;;;23.10;;
3573;SDS011;1801;51.050;6.246;2023-05-10T07:54:01;64.87;;;23.27;;
3573;SDS011;1801;51.050;6.246;2023-05-10T07:56:28;68.60;;;22.20;;
3573;SDS011;1801;51.050;6.246;2023-05-10T07:58:59;59.10;;;20.37;;
3573;SDS011;1801;51.050;6.246;2023-05-10T08:01:25;58.77;;;20.00;;
3573;SDS011;1801;51.050;6.246;2023-05-10T08:03:50;57.87;;;19.30;;
3573;SDS011;1801;51.050;6.246;2023-05-10T08:06:19;64.80;;;21.03;;
3573;SDS011;1801;51.050;6.246;2023-05-10T08:08:48;56.67;;;18.17;;
3573;SDS011;1801;51.050;6.246;2023-05-10T08:11:18;52.57;;;18.30;;
3573;SDS011;1801;51.050;6.246;2023-05-10T08:13:47;57.93;;;21.97;;
3573;SDS011;1801;51.050;6.246;2023-05-10T08:16:12;54.20;;;19.17;;
3573;SDS011;1801;51.050;6.246;2023-05-10T08:18:38;58.73;;;17.40;;
3573;SDS011;1801;51.050;6.246;2023-05-10T08:21:03;48.77;;;18.40;;
3573;SDS011;1801;51.050;6.246;2023-05-10T08:23:28;47.77;;;18.03;;
3573;SDS011;1801;51.050;6.246;2023-05-10T08:25:53;45.90;;;17.53;;
3573;SDS011;1801;51.050;6.246;2023-05-10T08:28:19;49.83;;;20.57;;
3573;SDS011;1801;51.050;6.246;2023-05-10T08:30:44;52.97;;;15.97;;
3573;SDS011;1801;51.050;6.246;2023-05-10T08:33:09;37.97;;;15.37;;
3573;SDS011;1801;51.050;6.246;2023-05-10T08:35:34;60.63;;;22.00;;
3573;SDS011;1801;51.050;6.246;2023-05-10T08:38:00;49.20;;;16.73;;
3573;SDS011;1801;51.050;6.246;2023-05-10T08:40:25;51.13;;;19.83;;
3573;SDS011;1801;51.050;6.246;2023-05-10T08:42:51;59.23;;;19.60;;
3573;SDS011;1801;51.050;6.246;2023-05-10T08:45:19;48.87;;;18.53;;
3573;SDS011;1801;51.050;6.246;2023-05-10T08:47:44;57.63;;;20.70;;
3573;SDS011;1801;51.050;6.246;2023-05-10T08:50:10;42.23;;;16.83;;
3573;SDS011;1801;51.050;6.246;2023-05-10T08:52:37;50.53;;;18.63;;
3573;SDS011;1801;51.050;6.246;2023-05-10T08:55:03;43.07;;;15.80;;
3573;SDS011;1801;51.050;6.246;2023-05-10T08:57:29;38.53;;;15.77;;
3573;SDS011;1801;51.050;6.246;2023-05-10T08:59:54;36.20;;;13.60;;
3573;SDS011;1801;51.050;6.246;2023-05-10T09:02:19;34.13;;;12.43;;
3573;SDS011;1801;51.050;6.246;2023-05-10T09:04:45;33.63;;;15.03;;
3573;SDS011;1801;51.050;6.246;2023-05-10T09:07:10;39.83;;;14.80;;
3573;SDS011;1801;51.050;6.246;2023-05-10T09:09:35;30.93;;;13.83;;
3573;SDS011;1801;51.050;6.246;2023-05-10T09:12:01;41.47;;;15.17;;
3573;SDS011;1801;51.050;6.246;2023-05-10T09:14:26;34.20;;;14.90;;
3573;SDS011;1801;51.050;6.246;2023-05-10T09:16:52;35.27;;;14.03;;
3573;SDS011;1801;51.050;6.246;2023-05-10T09:19:18;35.83;;;14.67;;
3573;SDS011;1801;51.050;6.246;2023-05-10T09:21:44;36.13;;;12.97;;
3573;SDS011;1801;51.050;6.246;2023-05-10T09:24:09;30.00;;;11.37;;
3573;SDS011;1801;51.050;6.246;2023-05-10T09:26:35;23.23;;;9.20;;
3573;SDS011;1801;51.050;6.246;2023-05-10T09:29:01;23.83;;;9.90;;
3573;SDS011;1801;51.050;6.246;2023-05-10T09:34:15;24.83;;;10.17;;
3573;SDS011;1801;51.050;6.246;2023-05-10T09:36:53;20.53;;;9.60;;
3573;SDS011;1801;51.050;6.246;2023-05-10T09:39:19;23.03;;;10.30;;
3573;SDS011;1801;51.050;6.246;2023-05-10T09:41:45;24.77;;;11.00;;
3573;SDS011;1801;51.050;6.246;2023-05-10T09:44:10;25.67;;;9.47;;
3573;SDS011;1801;51.050;6.246;2023-05-10T09:46:35;25.10;;;9.37;;
3573;SDS011;1801;51.050;6.246;2023-05-10T09:49:01;25.03;;;10.10;;
3573;SDS011;1801;51.050;6.246;2023-05-10T09:51:27;21.57;;;10.53;;
3573;SDS011;1801;51.050;6.246;2023-05-10T09:54:11;30.40;;;10.57;;
3573;SDS011;1801;51.050;6.246;2023-05-10T09:56:40;28.27;;;11.43;;
3573;SDS011;1801;51.050;6.246;2023-05-10T09:59:06;25.60;;;11.67;;
3573;SDS011;1801;51.050;6.246;2023-05-10T10:01:31;22.40;;;10.70;;
3573;SDS011;1801;51.050;6.246;2023-05-10T10:03:56;28.43;;;12.83;;
3573;SDS011;1801;51.050;6.246;2023-05-10T10:06:23;29.67;;;12.30;;
3573;SDS011;1801;51.050;6.246;2023-05-10T10:08:48;23.80;;;12.97;;
3573;SDS011;1801;51.050;6.246;2023-05-10T10:11:13;18.60;;;9.50;;
3573;SDS011;1801;51.050;6.246;2023-05-10T10:13:38;25.53;;;13.00;;
3573;SDS011;1801;51.050;6.246;2023-05-10T10:16:04;23.40;;;10.50;;
3573;SDS011;1801;51.050;6.246;2023-05-10T10:18:30;23.30;;;9.77;;
3573;SDS011;1801;51.050;6.246;2023-05-10T10:20:55;18.30;;;9.10;;
3573;SDS011;1801;51.050;6.246;2023-05-10T10:23:21;18.07;;;9.90;;
3573;SDS011;1801;51.050;6.246;2023-05-10T10:25:46;20.60;;;9.30;;
3573;SDS011;1801;51.050;6.246;2023-05-10T10:30:43;16.40;;;8.80;;
3573;SDS011;1801;51.050;6.246;2023-05-10T10:35:36;17.30;;;8.83;;
3573;SDS011;1801;51.050;6.246;2023-05-10T10:38:02;15.10;;;7.43;;
3573;SDS011;1801;51.050;6.246;2023-05-10T10:40:28;13.60;;;7.47;;
3573;SDS011;1801;51.050;6.246;2023-05-10T10:42:54;16.90;;;7.17;;
3573;SDS011;1801;51.050;6.246;2023-05-10T10:45:20;13.70;;;8.20;;
3573;SDS011;1801;51.050;6.246;2023-05-10T10:47:46;15.63;;;7.80;;
3573;SDS011;1801;51.050;6.246;2023-05-10T10:50:11;19.13;;;7.57;;
3573;SDS011;1801;51.050;6.246;2023-05-10T10:52:41;16.40;;;7.20;;
3573;SDS011;1801;51.050;6.246;2023-05-10T10:55:07;16.03;;;7.00;;
3573;SDS011;1801;51.050;6.246;2023-05-10T11:00:24;11.03;;;6.60;;
3573;SDS011;1801;51.050;6.246;2023-05-10T11:02:51;11.87;;;6.10;;
3573;SDS011;1801;51.050;6.246;2023-05-10T11:07:58;12.20;;;6.00;;
3573;SDS011;1801;51.050;6.246;2023-05-10T11:10:24;12.30;;;7.00;;
3573;SDS011;1801;51.050;6.246;2023-05-10T11:13:00;11.50;;;5.67;;
3573;SDS011;1801;51.050;6.246;2023-05-10T11:15:28;20.43;;;5.73;;
3573;SDS011;1801;51.050;6.246;2023-05-10T11:17:54;14.03;;;6.50;;
3573;SDS011;1801;51.050;6.246;2023-05-10T11:20:20;14.33;;;6.43;;
3573;SDS011;1801;51.050;6.246;2023-05-10T11:22:49;14.77;;;7.20;;
3573;SDS011;1801;51.050;6.246;2023-05-10T11:25:15;17.37;;;8.03;;
3573;SDS011;1801;51.050;6.246;2023-05-10T11:27:41;13.03;;;7.10;;
3573;SDS011;1801;51.050;6.246;2023-05-10T11:30:06;18.13;;;7.60;;
3573;SDS011;1801;51.050;6.246;2023-05-10T11:32:32;17.17;;;6.00;;
3573;SDS011;1801;51.050;6.246;2023-05-10T11:34:58;12.30;;;6.30;;
3573;SDS011;1801;51.050;6.246;2023-05-10T11:37:23;14.70;;;6.43;;
3573;SDS011;1801;51.050;6.246;2023-05-10T11:39:48;9.83;;;6.13;;
3573;SDS011;1801;51.050;6.246;2023-05-10T11:42:13;11.27;;;6.33;;
3573;SDS011;1801;51.050;6.246;2023-05-10T11:44:38;16.47;;;7.50;;
3573;SDS011;1801;51.050;6.246;2023-05-10T11:47:04;16.03;;;8.03;;
3573;SDS011;1801;51.050;6.246;2023-05-10T11:49:30;15.57;;;5.93;;
3573;SDS011;1801;51.050;6.246;2023-05-10T11:52:07;13.10;;;5.50;;
3573;SDS011;1801;51.050;6.246;2023-05-10T11:54:33;18.40;;;7.37;;
3573;SDS011;1801;51.050;6.246;2023-05-10T11:57:00;14.60;;;6.30;;
3573;SDS011;1801;51.050;6.246;2023-05-10T11:59:25;10.30;;;6.03;;
3573;SDS011;1801;51.050;6.246;2023-05-10T12:01:50;9.73;;;5.33;;
3573;SDS011;1801;51.050;6.246;2023-05-10T12:04:15;13.30;;;6.53;;
3573;SDS011;1801;51.050;6.246;2023-05-10T12:06:41;17.23;;;7.80;;
3573;SDS011;1801;51.050;6.246;2023-05-10T12:09:06;13.47;;;6.57;;
3573;SDS011;1801;51.050;6.246;2023-05-10T12:11:35;11.37;;;5.40;;
3573;SDS011;1801;51.050;6.246;2023-05-10T12:14:03;9.70;;;4.90;;
3573;SDS011;1801;51.050;6.246;2023-05-10T12:16:29;9.90;;;5.83;;
3573;SDS011;1801;51.050;6.246;2023-05-10T12:18:58;11.90;;;6.23;;
3573;SDS011;1801;51.050;6.246;2023-05-10T12:21:23;10.70;;;5.90;;
3573;SDS011;1801;51.050;6.246;2023-05-10T12:23:52;16.30;;;6.50;;
3573;SDS011;1801;51.050;6.246;2023-05-10T12:26:18;12.97;;;7.40;;
3573;SDS011;1801;51.050;6.246;2023-05-10T12:28:43;9.07;;;5.83;;
3573;SDS011;1801;51.050;6.246;2023-05-10T12:31:09;9.60;;;5.27;;
3573;SDS011;1801;51.050;6.246;2023-05-10T12:33:38;10.10;;;5.30;;
3573;SDS011;1801;51.050;6.246;2023-05-10T12:36:04;10.07;;;4.30;;
3573;SDS011;1801;51.050;6.246;2023-05-10T12:40:59;7.10;;;4.03;;
3573;SDS011;1801;51.050;6.246;2023-05-10T12:43:24;8.67;;;4.67;;
3573;SDS011;1801;51.050;6.246;2023-05-10T12:45:49;9.47;;;5.40;;
3573;SDS011;1801;51.050;6.246;2023-05-10T12:48:15;9.37;;;5.20;;
3573;SDS011;1801;51.050;6.246;2023-05-10T12:50:40;9.27;;;4.60;;
3573;SDS011;1801;51.050;6.246;2023-05-10T12:53:05;6.77;;;4.60;;
3573;SDS011;1801;51.050;6.246;2023-05-10T12:55:30;9.30;;;4.47;;
3573;SDS011;1801;51.050;6.246;2023-05-10T12:57:56;7.13;;;4.17;;
3573;SDS011;1801;51.050;6.246;2023-05-10T13:00:21;6.27;;;3.83;;
3573;SDS011;1801;51.050;6.246;2023-05-10T13:02:46;9.63;;;4.80;;
3573;SDS011;1801;51.050;6.246;2023-05-10T13:05:11;8.87;;;5.77;;
3573;SDS011;1801;51.050;6.246;2023-05-10T13:07:38;8.47;;;4.30;;
3573;SDS011;1801;51.050;6.246;2023-05-10T13:10:03;10.07;;;4.97;;
3573;SDS011;1801;51.050;6.246;2023-05-10T13:12:28;7.03;;;4.53;;
3573;SDS011;1801;51.050;6.246;2023-05-10T13:14:54;7.53;;;4.60;;
3573;SDS011;1801;51.050;6.246;2023-05-10T13:17:19;8.90;;;5.20;;
3573;SDS011;1801;51.050;6.246;2023-05-10T13:19:44;8.50;;;4.43;;
3573;SDS011;1801;51.050;6.246;2023-05-10T13:22:10;7.30;;;4.73;;
3573;SDS011;1801;51.050;6.246;2023-05-10T13:24:35;14.50;;;5.50;;
3573;SDS011;1801;51.050;6.246;2023-05-10T13:27:00;12.80;;;6.07;;
3573;SDS011;1801;51.050;6.246;2023-05-10T13:29:25;9.80;;;4.87;;
3573;SDS011;1801;51.050;6.246;2023-05-10T13:31:50;17.37;;;5.80;;
3573;SDS011;1801;51.050;6.246;2023-05-10T13:34:16;11.70;;;6.03;;
3573;SDS011;1801;51.050;6.246;2023-05-10T13:36:41;9.13;;;4.97;;
3573;SDS011;1801;51.050;6.246;2023-05-10T13:39:07;10.33;;;5.30;;
3573;SDS011;1801;51.050;6.246;2023-05-10T13:41:32;10.40;;;5.80;;
3573;SDS011;1801;51.050;6.246;2023-05-10T13:43:57;9.77;;;5.13;;
3573;SDS011;1801;51.050;6.246;2023-05-10T13:46:22;10.73;;;5.60;;
3573;SDS011;1801;51.050;6.246;2023-05-10T13:48:48;10.73;;;5.90;;
3573;SDS011;1801;51.050;6.246;2023-05-10T13:51:13;7.90;;;4.13;;
3573;SDS011;1801;51.050;6.246;2023-05-10T13:53:38;8.67;;;4.30;;
3573;SDS011;1801;51.050;6.246;2023-05-10T13:56:03;10.97;;;5.20;;
3573;SDS011;1801;51.050;6.246;2023-05-10T13:58:29;8.03;;;4.73;;
3573;SDS011;1801;51.050;6.246;2023-05-10T14:00:54;9.43;;;5.23;;
3573;SDS011;1801;51.050;6.246;2023-05-10T14:03:19;6.07;;;4.87;;
3573;SDS011;1801;51.050;6.246;2023-05-10T14:05:44;8.23;;;4.60;;
3573;SDS011;1801;51.050;6.246;2023-05-10T14:08:11;10.37;;;5.00;;
3573;SDS011;1801;51.050;6.246;2023-05-10T14:10:38;10.40;;;4.90;;
3573;SDS011;1801;51.050;6.246;2023-05-10T14:13:03;7.13;;;4.17;;
3573;SDS011;1801;51.050;6.246;2023-05-10T14:15:28;8.80;;;5.63;;
3573;SDS011;1801;51.050;6.246;2023-05-10T14:17:53;7.07;;;4.43;;
3573;SDS011;1801;51.050;6.246;2023-05-10T14:20:18;6.80;;;4.53;;
3573;SDS011;1801;51.050;6.246;2023-05-10T14:22:44;7.90;;;5.40;;
3573;SDS011;1801;51.050;6.246;2023-05-10T14:25:09;10.17;;;5.00;;
3573;SDS011;1801;51.050;6.246;2023-05-10T14:27:34;10.23;;;4.43;;
3573;SDS011;1801;51.050;6.246;2023-05-10T14:29:59;6.80;;;4.30;;
3573;SDS011;1801;51.050;6.246;2023-05-10T14:32:25;7.20;;;4.13;;
3573;SDS011;1801;51.050;6.246;2023-05-10T14:34:51;7.03;;;3.90;;
3573;SDS011;1801;51.050;6.246;2023-05-10T14:37:17;8.20;;;4.57;;
3573;SDS011;1801;51.050;6.246;2023-05-10T14:39:42;5.40;;;3.30;;
3573;SDS011;1801;51.050;6.246;2023-05-10T14:42:07;6.20;;;4.07;;
3573;SDS011;1801;51.050;6.246;2023-05-10T14:44:33;7.40;;;4.80;;
3573;SDS011;1801;51.050;6.246;2023-05-10T14:46:58;7.27;;;4.00;;
3573;SDS011;1801;51.050;6.246;2023-05-10T14:49:23;8.53;;;4.00;;
3573;SDS011;1801;51.050;6.246;2023-05-10T14:51:50;9.00;;;4.47;;
3573;SDS011;1801;51.050;6.246;2023-05-10T14:54:15;4.67;;;3.33;;
3573;SDS011;1801;51.050;6.246;2023-05-10T14:56:41;5.80;;;3.87;;
3573;SDS011;1801;51.050;6.246;2023-05-10T14:59:06;5.80;;;3.53;;
3573;SDS011;1801;51.050;6.246;2023-05-10T15:01:32;6.47;;;3.80;;
3573;SDS011;1801;51.050;6.246;2023-05-10T15:03:58;7.20;;;3.40;;
3573;SDS011;1801;51.050;6.246;2023-05-10T15:06:23;7.20;;;4.47;;
3573;SDS011;1801;51.050;6.246;2023-05-10T15:08:49;7.87;;;4.47;;
3573;SDS011;1801;51.050;6.246;2023-05-10T15:11:15;4.30;;;2.77;;
3573;SDS011;1801;51.050;6.246;2023-05-10T15:13:40;7.97;;;3.90;;
3573;SDS011;1801;51.050;6.246;2023-05-10T15:16:05;6.20;;;4.00;;
3573;SDS011;1801;51.050;6.246;2023-05-10T15:18:31;5.80;;;2.90;;